Maskell, Nebraska
Current Conditions -  °F | °C
As of 10:15 AM on Sunday 25 Jan 2015 (Local Time) from KYKN Reporting Station
Overcast Overcast  
Wind Chill: 24°   Ceiling: 600
Heat Index: 34°   Visibility: 9mi
Dew Point: 30°   Wind: 14mph
Humidity: 87%   Direction: 330°NNW
Pressure: 30.02"   Gusts: NA
Location:  42.69°N, 96.98°W
Report Text: KYKN 251615Z AUTO 33012KT 9SM OVC006 01/M01 A3002 RMK AO1
Loading
Personal Weather Stations






























Interactive Weather Map New forecast layout! Learn more

10-Day Weather Forecast

Advertisements
Track Severe Weather on mobile